Costa Atlantica — IBLQ — position and weather

sailwx.info

Track history (hours):
 
Tides and Currents Weather Stations Pressure Air Temp Water Temp Dewpoint Dewpoint Depression Visibility Wind Speed Wind Dir Waves Ship Positions

Costa Atlantica (Italy)

Last reported at 2017-Nov-01 19:42 UTC. Time now 2017-Nov-21 17:12 UTC.
Position N 38°17' E 121°32'.
Warning: this ship's position is 19 days out of date.

Length 292 m; draft 8 m.

Type: Ship. MMSI: 247645000.

Date/timePositionNaut miles runAvg speedWind from/ knotsBaromVisibWave heightAir tempDewpointWater temp
2017-Nov-01 19:42N 38°17' E 121°32'819.0
2017-Nov-01 19:18N 38°21' E 121°23'619.1
2017-Nov-01 19:00N 38°24' E 121°17'  
2017-Oct-27 23:31N 38°01' E 122°19'020.4
2017-Oct-27 23:30N 38°02' E 122°18'1020.4
2017-Oct-27 23:00N 38°06' E 122°07'1220.1
2017-Oct-27 22:26N 38°10' E 121°53'1119.8
2017-Oct-27 21:51N 38°15' E 121°40'719.8
2017-Oct-27 21:30N 38°18' E 121°32'1019.4
2017-Oct-27 21:00N 38°23' E 121°21'1019.2
2017-Oct-27 20:30N 38°26' E 121°10'  
Track history (hours):
 
Tides and Currents Weather Stations Pressure Air Temp Water Temp Dewpoint Dewpoint Depression Visibility Wind Speed Wind Dir Waves Ship Positions

Costa Atlantica (Italy)

Last reported at 2017-Nov-01 19:42 UTC. Time now 2017-Nov-21 17:12 UTC.
Position N 38°17' E 121°32'.
Warning: this ship's position is 19 days out of date.

Length 292 m; draft 8 m.

Type: Ship. MMSI: 247645000.

Date/timePositionNaut miles runAvg speedWind from/ knotsBaromVisibWave heightAir tempDewpointWater temp
2017-Nov-01 19:42N 38°17' E 121°32'819.0
2017-Nov-01 19:18N 38°21' E 121°23'619.1
2017-Nov-01 19:00N 38°24' E 121°17'  
2017-Oct-27 23:31N 38°01' E 122°19'020.4
2017-Oct-27 23:30N 38°02' E 122°18'1020.4
2017-Oct-27 23:00N 38°06' E 122°07'1220.1
2017-Oct-27 22:26N 38°10' E 121°53'1119.8
2017-Oct-27 21:51N 38°15' E 121°40'719.8
2017-Oct-27 21:30N 38°18' E 121°32'1019.4
2017-Oct-27 21:00N 38°23' E 121°21'1019.2
2017-Oct-27 20:30N 38°26' E 121°10'  

Dump ship's entire track history